createdAt,value
2022-08-18T00:02:28.098Z,19.20
2022-08-18T00:05:32.680Z,19.20
2022-08-18T00:08:38.702Z,19.10
2022-08-18T00:11:43.416Z,19.10
2022-08-18T00:14:47.154Z,19.10
2022-08-18T00:17:49.092Z,19.10
2022-08-18T00:20:52.028Z,19.00
2022-08-18T00:23:54.347Z,19.00
2022-08-18T00:26:56.254Z,19.00
2022-08-18T00:30:01.513Z,19.00
2022-08-18T00:33:03.674Z,18.90
2022-08-18T00:36:05.718Z,18.80
2022-08-18T00:39:07.685Z,18.80
2022-08-18T00:42:28.157Z,18.80
2022-08-18T00:45:37.413Z,18.80
2022-08-18T00:48:39.782Z,18.70
2022-08-18T00:51:48.181Z,18.80
2022-08-18T00:54:51.388Z,18.70
2022-08-18T00:57:55.142Z,18.70
2022-08-18T01:00:57.106Z,18.90
2022-08-18T01:04:12.437Z,18.90
2022-08-18T01:07:29.800Z,18.90
2022-08-18T01:10:34.112Z,18.80
2022-08-18T01:13:38.373Z,18.90
2022-08-18T01:16:58.586Z,18.80
2022-08-18T01:20:20.044Z,19.00
2022-08-18T01:23:26.254Z,19.00
2022-08-18T01:26:30.453Z,19.00
2022-08-18T01:29:40.212Z,18.90
2022-08-18T01:32:46.104Z,19.00
2022-08-18T01:35:49.526Z,19.00
2022-08-18T01:38:53.562Z,19.00
2022-08-18T01:41:55.629Z,18.90
2022-08-18T01:44:57.789Z,18.90
2022-08-18T01:48:00.086Z,18.90
2022-08-18T01:51:05.673Z,18.90
2022-08-18T01:54:10.373Z,18.80
2022-08-18T01:57:14.730Z,18.90
2022-08-18T02:00:19.228Z,18.80
2022-08-18T02:03:21.234Z,18.80
2022-08-18T02:06:32.138Z,18.80
2022-08-18T02:09:36.273Z,18.80
2022-08-18T02:12:39.796Z,18.80
2022-08-18T02:15:42.906Z,18.90
2022-08-18T02:18:48.681Z,18.90
2022-08-18T02:21:53.010Z,19.00
2022-08-18T02:24:57.648Z,18.80
2022-08-18T02:27:59.994Z,18.70
2022-08-18T02:31:08.112Z,18.60
2022-08-18T02:34:13.376Z,18.60
2022-08-18T02:37:15.799Z,18.60
2022-08-18T02:40:19.160Z,18.60
2022-08-18T02:43:21.242Z,18.60
2022-08-18T02:46:23.654Z,18.60
2022-08-18T02:49:25.894Z,18.60
2022-08-18T02:52:33.914Z,18.60
2022-08-18T02:55:35.968Z,18.50
2022-08-18T02:58:37.897Z,18.50
2022-08-18T03:01:42.170Z,18.50
2022-08-18T03:04:44.244Z,18.50
2022-08-18T03:07:46.940Z,18.50
2022-08-18T03:10:52.799Z,18.50
2022-08-18T03:13:56.432Z,18.50
2022-08-18T03:16:58.460Z,18.60
2022-08-18T03:20:00.995Z,18.60
2022-08-18T03:23:09.839Z,18.60
2022-08-18T03:26:14.672Z,18.70
2022-08-18T03:29:16.778Z,18.80
2022-08-18T03:32:19.261Z,18.80
2022-08-18T03:35:21.517Z,18.80
2022-08-18T03:38:24.805Z,18.90
2022-08-18T03:41:43.794Z,19.00
2022-08-18T03:44:49.439Z,19.10
2022-08-18T03:47:53.441Z,19.20
2022-08-18T03:50:55.742Z,19.30
2022-08-18T03:54:02.040Z,19.40
2022-08-18T03:57:04.117Z,19.50
2022-08-18T04:00:06.777Z,19.50
2022-08-18T04:03:09.657Z,19.60
2022-08-18T04:06:40.902Z,19.70
2022-08-18T04:09:43.411Z,19.60
2022-08-18T04:12:45.360Z,19.80
2022-08-18T04:15:48.599Z,19.90
2022-08-18T04:18:50.388Z,20.10
2022-08-18T04:21:53.830Z,19.90
2022-08-18T04:24:55.965Z,19.90
2022-08-18T04:28:01.536Z,19.90
2022-08-18T04:31:12.463Z,20.00
2022-08-18T04:34:15.319Z,20.10
2022-08-18T04:37:17.739Z,20.10
2022-08-18T04:40:24.884Z,20.20
2022-08-18T04:43:27.239Z,20.30
2022-08-18T04:46:30.390Z,20.60
2022-08-18T04:49:34.151Z,20.50
2022-08-18T04:52:54.687Z,20.50
2022-08-18T04:55:56.771Z,20.50
2022-08-18T04:59:06.553Z,20.60
2022-08-18T05:02:12.783Z,20.80
2022-08-18T05:05:16.719Z,21.00
2022-08-18T05:08:18.730Z,21.30
2022-08-18T05:11:25.821Z,21.40
2022-08-18T05:14:27.778Z,21.20
2022-08-18T05:17:30.314Z,21.60
2022-08-18T05:20:32.768Z,21.60
2022-08-18T05:23:36.184Z,21.90
2022-08-18T05:26:38.207Z,22.10
2022-08-18T05:29:45.512Z,22.30
2022-08-18T05:32:50.613Z,22.40
2022-08-18T05:36:05.429Z,22.30
2022-08-18T05:39:15.892Z,22.50
2022-08-18T05:42:21.548Z,22.70
2022-08-18T05:45:24.189Z,22.90
2022-08-18T05:48:26.930Z,22.80
2022-08-18T05:51:34.853Z,23.00
2022-08-18T05:55:01.606Z,23.10
2022-08-18T05:58:12.793Z,23.30
2022-08-18T06:01:22.870Z,23.40
2022-08-18T06:04:48.095Z,23.60
2022-08-18T06:08:14.447Z,23.60
2022-08-18T06:11:17.283Z,23.70
2022-08-18T06:14:25.937Z,23.80
2022-08-18T06:17:51.563Z,23.90
2022-08-18T06:21:12.301Z,24.00
2022-08-18T06:24:38.930Z,24.10
2022-08-18T06:28:02.139Z,24.20
2022-08-18T06:31:22.842Z,24.10
2022-08-18T06:34:43.286Z,24.10
2022-08-18T06:38:23.463Z,24.30
2022-08-18T06:41:50.911Z,24.40
2022-08-18T06:45:01.140Z,24.50
2022-08-18T06:48:21.532Z,24.50
2022-08-18T06:51:30.558Z,24.80
2022-08-18T06:54:32.613Z,24.90
2022-08-18T06:57:38.473Z,25.10
2022-08-18T07:00:56.392Z,25.10
2022-08-18T07:03:58.592Z,25.30
2022-08-18T07:07:30.218Z,25.40
2022-08-18T07:10:45.114Z,25.50
2022-08-18T07:14:14.524Z,25.50
2022-08-18T07:17:43.707Z,25.60
2022-08-18T07:20:54.057Z,25.50
2022-08-18T07:24:24.267Z,25.40
2022-08-18T07:27:49.136Z,25.70
2022-08-18T07:31:15.586Z,25.80
2022-08-18T07:34:18.362Z,25.90
2022-08-18T07:37:58.136Z,25.90
2022-08-18T07:41:29.223Z,26.00
2022-08-18T07:44:39.992Z,26.00
2022-08-18T07:51:43.509Z,26.10
2022-08-18T07:55:01.650Z,26.00
2022-08-18T07:58:34.588Z,25.90
2022-08-18T08:01:56.194Z,26.40
2022-08-18T08:05:17.774Z,26.70
2022-08-18T08:08:30.971Z,26.50
2022-08-18T08:11:47.120Z,26.30
2022-08-18T08:14:52.111Z,26.50
2022-08-18T08:18:24.574Z,26.70
2022-08-18T08:21:31.976Z,26.70
2022-08-18T08:24:52.376Z,26.90
2022-08-18T08:28:22.976Z,26.90
2022-08-18T08:31:37.027Z,27.10
2022-08-18T08:34:59.228Z,27.30
2022-08-18T08:38:36.635Z,27.50
2022-08-18T08:41:40.550Z,27.80
2022-08-18T08:45:01.146Z,28.00
2022-08-18T08:48:21.381Z,27.90
2022-08-18T08:51:39.766Z,27.80
2022-08-18T08:54:47.966Z,28.00
2022-08-18T08:57:55.901Z,28.40
2022-08-18T09:00:58.575Z,28.10
2022-08-18T09:04:17.317Z,28.00
2022-08-18T09:07:19.293Z,28.10
2022-08-18T09:10:33.668Z,28.30
2022-08-18T09:13:41.602Z,27.90
2022-08-18T09:17:08.260Z,27.80
2022-08-18T09:20:34.433Z,27.90
2022-08-18T09:23:44.362Z,28.20
2022-08-18T09:27:03.600Z,28.80
2022-08-18T09:30:07.868Z,28.90
2022-08-18T09:33:45.912Z,28.90
2022-08-18T09:37:24.537Z,28.40
2022-08-18T09:41:02.419Z,27.70
2022-08-18T09:44:21.659Z,28.50
2022-08-18T09:47:35.254Z,29.20
2022-08-18T09:50:53.265Z,29.00
2022-08-18T09:54:13.383Z,29.30
2022-08-18T09:57:43.803Z,29.50
2022-08-18T10:01:06.492Z,29.00
2022-08-18T10:04:14.344Z,29.90
2022-08-18T10:07:38.788Z,29.10
2022-08-18T10:11:13.687Z,28.80
2022-08-18T10:14:49.162Z,28.90
2022-08-18T10:18:11.821Z,28.50
2022-08-18T10:21:22.753Z,27.90
2022-08-18T10:24:36.251Z,27.80
2022-08-18T10:27:55.209Z,28.10
2022-08-18T10:31:09.879Z,27.60
2022-08-18T10:37:47.302Z,27.80
2022-08-18T10:41:09.899Z,27.40
2022-08-18T10:44:29.058Z,27.40
2022-08-18T10:47:33.500Z,27.40
2022-08-18T10:51:09.182Z,27.40
2022-08-18T10:54:34.277Z,27.70
2022-08-18T10:58:19.980Z,27.70
2022-08-18T11:02:01.759Z,27.60
2022-08-18T11:05:10.006Z,27.70
2022-08-18T11:08:20.039Z,27.70
2022-08-18T11:14:54.546Z,28.00
2022-08-18T11:18:10.784Z,28.20
2022-08-18T11:24:57.632Z,28.40
2022-08-18T11:28:01.395Z,28.50
2022-08-18T11:31:03.457Z,28.30
2022-08-18T11:34:19.744Z,28.50
2022-08-18T11:37:21.860Z,28.40
2022-08-18T11:44:00.252Z,28.90
2022-08-18T11:51:18.088Z,29.20
2022-08-18T11:54:50.261Z,29.40
2022-08-18T11:58:00.129Z,29.30
2022-08-18T12:01:03.261Z,29.00
2022-08-18T12:04:42.002Z,29.40
2022-08-18T12:07:56.967Z,29.20
2022-08-18T12:11:27.332Z,29.20
2022-08-18T12:14:50.922Z,29.20
2022-08-18T12:17:53.965Z,28.90
2022-08-18T12:20:57.504Z,28.70
2022-08-18T12:23:59.630Z,28.70
2022-08-18T12:27:01.531Z,28.70
2022-08-18T12:30:16.418Z,28.60
2022-08-18T12:33:18.757Z,28.50
2022-08-18T12:36:29.903Z,27.80
2022-08-18T12:39:32.272Z,26.60
2022-08-18T12:42:34.931Z,26.30
2022-08-18T12:45:38.131Z,23.10
2022-08-18T12:48:40.520Z,23.10
2022-08-18T12:51:43.419Z,22.80
2022-08-18T12:54:55.144Z,23.70
2022-08-18T12:57:57.930Z,23.70
2022-08-18T13:01:00.500Z,24.40
2022-08-18T13:04:12.694Z,24.80
2022-08-18T13:07:19.109Z,25.00
2022-08-18T13:10:21.597Z,25.40
2022-08-18T13:16:54.784Z,26.00
2022-08-18T13:19:57.641Z,26.10
2022-08-18T13:22:59.688Z,25.80
2022-08-18T13:26:03.474Z,26.10
2022-08-18T13:29:06.462Z,26.50
2022-08-18T13:32:12.324Z,26.70
2022-08-18T13:35:14.431Z,26.60
2022-08-18T13:38:26.136Z,26.30
2022-08-18T13:41:32.594Z,26.30
2022-08-18T13:44:34.977Z,26.30
2022-08-18T13:47:38.022Z,26.50
2022-08-18T13:50:40.571Z,26.30
2022-08-18T13:53:57.613Z,26.60
2022-08-18T13:57:06.812Z,26.70
2022-08-18T14:00:18.178Z,26.90
2022-08-18T14:03:42.790Z,26.50
2022-08-18T14:06:46.804Z,26.10
2022-08-18T14:09:53.371Z,26.20
2022-08-18T14:12:58.031Z,26.40
2022-08-18T14:16:01.337Z,26.70
2022-08-18T14:19:24.564Z,26.80
2022-08-18T14:23:00.181Z,26.80
2022-08-18T14:26:21.040Z,26.70
2022-08-18T14:29:45.862Z,26.60
2022-08-18T14:32:49.204Z,25.90
2022-08-18T14:36:07.007Z,25.50
2022-08-18T14:39:11.546Z,25.50
2022-08-18T14:42:16.043Z,24.80
2022-08-18T14:45:31.395Z,24.60
2022-08-18T14:48:37.552Z,23.90
2022-08-18T14:51:42.898Z,23.00
2022-08-18T14:54:46.344Z,22.50
2022-08-18T14:57:53.568Z,22.30
2022-08-18T15:00:58.863Z,22.10
2022-08-18T15:04:01.054Z,21.60
2022-08-18T15:07:24.101Z,20.70
2022-08-18T15:10:28.147Z,21.40
2022-08-18T15:13:30.630Z,21.40
2022-08-18T15:16:34.993Z,21.40
2022-08-18T15:20:00.653Z,21.50
2022-08-18T15:23:28.318Z,21.60
2022-08-18T15:26:31.086Z,21.70
2022-08-18T15:29:33.851Z,21.60
2022-08-18T15:32:36.139Z,21.70
2022-08-18T15:35:44.149Z,21.80
2022-08-18T15:38:46.313Z,22.10
2022-08-18T15:45:11.296Z,22.70
2022-08-18T15:48:17.350Z,22.70
2022-08-18T15:51:19.535Z,23.00
2022-08-18T15:54:22.187Z,24.10
2022-08-18T15:57:39.042Z,23.90
2022-08-18T16:00:48.386Z,24.10
2022-08-18T16:03:50.749Z,26.10
2022-08-18T16:06:56.186Z,27.00
2022-08-18T16:09:58.395Z,27.30
2022-08-18T16:13:02.012Z,27.00
2022-08-18T16:16:15.750Z,27.00
2022-08-18T16:19:30.808Z,26.70
2022-08-18T16:22:34.757Z,26.80
2022-08-18T16:25:43.402Z,26.60
2022-08-18T16:28:46.981Z,26.20
2022-08-18T16:31:51.087Z,25.90
2022-08-18T16:34:53.223Z,25.50
2022-08-18T16:37:57.762Z,24.70
2022-08-18T16:41:09.507Z,24.50
2022-08-18T16:44:16.033Z,24.10
2022-08-18T16:47:18.486Z,23.60
2022-08-18T16:50:20.469Z,23.20
2022-08-18T16:53:22.506Z,23.00
2022-08-18T16:56:27.618Z,22.80
2022-08-18T16:59:48.136Z,22.80
2022-08-18T17:03:08.353Z,22.70
2022-08-18T17:06:14.047Z,22.70
2022-08-18T17:09:17.095Z,22.40
2022-08-18T17:12:18.951Z,22.40
2022-08-18T17:15:21.577Z,22.50
2022-08-18T17:18:25.625Z,22.50
2022-08-18T17:21:30.250Z,22.60
2022-08-18T17:24:33.417Z,22.20
2022-08-18T17:27:37.639Z,22.40
2022-08-18T17:30:47.765Z,22.30
2022-08-18T17:33:51.331Z,22.00
2022-08-18T17:36:58.163Z,22.00
2022-08-18T17:40:46.195Z,22.00
2022-08-18T17:43:48.249Z,21.90
2022-08-18T17:46:50.358Z,21.80
2022-08-18T17:50:27.438Z,21.70
2022-08-18T17:53:32.551Z,21.70
2022-08-18T17:56:46.400Z,21.70
2022-08-18T18:00:05.870Z,21.70
2022-08-18T18:03:09.795Z,21.60
2022-08-18T18:06:29.577Z,21.60
2022-08-18T18:09:31.777Z,21.60
2022-08-18T18:12:36.007Z,21.40
2022-08-18T18:15:41.430Z,21.40
2022-08-18T18:18:45.310Z,21.30
2022-08-18T18:22:10.820Z,21.30
2022-08-18T18:25:13.933Z,21.20
2022-08-18T18:28:27.561Z,21.60
2022-08-18T18:31:31.325Z,21.60
2022-08-18T18:34:59.468Z,21.30
2022-08-18T18:38:03.674Z,21.40
2022-08-18T18:41:26.353Z,21.40
2022-08-18T18:44:30.911Z,21.30
2022-08-18T18:48:45.298Z,21.30
2022-08-18T18:51:50.580Z,21.30
2022-08-18T18:55:06.288Z,21.30
2022-08-18T18:58:27.275Z,21.30
2022-08-18T19:01:52.596Z,21.40
2022-08-18T19:05:16.720Z,21.20
2022-08-18T19:08:54.285Z,21.20
2022-08-18T19:12:05.275Z,21.30
2022-08-18T19:15:14.970Z,21.50
2022-08-18T19:18:37.589Z,21.50
2022-08-18T19:22:03.235Z,21.60
2022-08-18T19:25:18.271Z,21.60
2022-08-18T19:28:36.881Z,21.50
2022-08-18T19:32:17.047Z,21.30
2022-08-18T19:35:24.962Z,21.40
2022-08-18T19:39:02.053Z,21.40
2022-08-18T19:42:37.409Z,21.30
2022-08-18T19:46:10.991Z,21.10
2022-08-18T19:49:31.602Z,21.00
2022-08-18T19:53:11.362Z,21.10
2022-08-18T19:56:29.488Z,21.00
2022-08-18T19:59:53.057Z,20.80
2022-08-18T20:03:18.711Z,20.90
2022-08-18T20:06:50.006Z,20.90
2022-08-18T20:10:01.574Z,20.90
2022-08-18T20:13:15.600Z,20.90
2022-08-18T20:16:43.414Z,21.00
2022-08-18T20:19:49.991Z,21.00
2022-08-18T20:22:57.172Z,21.00
2022-08-18T20:25:59.736Z,21.00
2022-08-18T20:29:03.549Z,20.90
2022-08-18T20:32:18.623Z,20.90
2022-08-18T20:35:30.066Z,20.80
2022-08-18T20:38:45.896Z,20.70
2022-08-18T20:41:50.622Z,20.70
2022-08-18T20:45:20.952Z,20.70
2022-08-18T20:48:29.932Z,20.70
2022-08-18T20:51:41.171Z,20.70
2022-08-18T20:54:59.773Z,20.70
2022-08-18T20:58:12.323Z,20.70
2022-08-18T21:01:14.506Z,20.60
2022-08-18T21:04:16.423Z,20.60
2022-08-18T21:07:37.014Z,20.50
2022-08-18T21:10:48.201Z,20.40
2022-08-18T21:13:53.262Z,20.40
2022-08-18T21:16:55.260Z,20.40
2022-08-18T21:20:24.309Z,20.40
2022-08-18T21:23:37.636Z,20.40
2022-08-18T21:26:40.468Z,20.40
2022-08-18T21:29:49.754Z,20.30
2022-08-18T21:32:52.177Z,20.40
2022-08-18T21:35:54.219Z,20.30
2022-08-18T21:38:58.457Z,20.30
2022-08-18T21:42:16.508Z,20.30
2022-08-18T21:45:23.302Z,20.20
2022-08-18T21:48:26.821Z,20.30
2022-08-18T21:51:49.810Z,20.30
2022-08-18T21:54:51.817Z,20.30
2022-08-18T21:58:14.436Z,20.20
2022-08-18T22:01:29.322Z,20.20
2022-08-18T22:04:37.831Z,20.20
2022-08-18T22:07:47.868Z,20.20
2022-08-18T22:11:57.714Z,20.20
2022-08-18T22:15:07.239Z,20.20
2022-08-18T22:18:31.633Z,20.00
2022-08-18T22:21:41.392Z,20.00
2022-08-18T22:24:45.770Z,20.10
2022-08-18T22:27:50.374Z,20.00
2022-08-18T22:30:52.290Z,20.00
2022-08-18T22:33:54.568Z,20.00
2022-08-18T22:37:01.223Z,20.00
2022-08-18T22:40:10.110Z,20.00
2022-08-18T22:43:12.185Z,20.00
2022-08-18T22:46:14.065Z,20.00
2022-08-18T22:49:26.622Z,20.00
2022-08-18T22:52:35.493Z,19.90
2022-08-18T22:55:37.693Z,19.80
2022-08-18T22:58:42.572Z,19.80
2022-08-18T23:01:49.731Z,19.80
2022-08-18T23:04:51.783Z,19.80
2022-08-18T23:07:53.989Z,19.80
2022-08-18T23:10:55.945Z,19.80
2022-08-18T23:14:00.640Z,19.80
2022-08-18T23:17:05.097Z,19.70
2022-08-18T23:20:11.437Z,19.60
2022-08-18T23:23:16.925Z,19.60
2022-08-18T23:26:18.848Z,19.60
2022-08-18T23:29:25.356Z,19.60
2022-08-18T23:32:30.189Z,19.60
2022-08-18T23:35:34.495Z,19.50
2022-08-18T23:38:38.435Z,19.50
2022-08-18T23:41:40.444Z,19.60
2022-08-18T23:44:42.589Z,19.60
2022-08-18T23:47:44.561Z,19.60
2022-08-18T23:50:47.630Z,19.50
2022-08-18T23:53:52.261Z,19.40
2022-08-18T23:56:54.464Z,19.40
2022-08-18T23:59:56.798Z,19.30
